Time;durP1;ratioP1;P1;durP2;ratioP2;P2;SDS_P1;SDS_P2;PMS_P1;PMS_P2;Temp;Humidity;BMP_temperature;BMP_pressure;BME280_temperature;BME280_humidity;BME280_pressure;Samples;Min_cycle;Max_cycle;Signal;HPM_P1;HPM_P2
2021/03/18 00:00:31;;;;;;;14.73;6.28;;;;;;;;;;5117412;28;20662;-64
2021/03/18 00:02:58;;;;;;;7.43;5.90;;;;;;;;;;5117665;28;20223;-65
2021/03/18 00:05:25;;;;;;;11.55;7.07;;;;;;;;;;5118261;28;20215;-64
2021/03/18 00:07:51;;;;;;;9.13;6.70;;;;;;;;;;5118059;28;20197;-64
2021/03/18 00:10:19;;;;;;;8.77;7.10;;;;;;;;;;5117676;28;20193;-64
2021/03/18 00:12:46;;;;;;;16.25;6.22;;;;;;;;;;5117334;28;20718;-64
2021/03/18 00:15:13;;;;;;;9.45;6.45;;;;;;;;;;5117113;28;20208;-64
2021/03/18 00:17:40;;;;;;;13.52;7.30;;;;;;;;;;5117886;28;20225;-65
2021/03/18 00:20:08;;;;;;;12.35;7.07;;;;;;;;;;5117266;28;20203;-65
2021/03/18 00:22:36;;;;;;;9.63;6.35;;;;;;;;;;5117514;28;20217;-64
2021/03/18 00:25:02;;;;;;;16.40;7.30;;;;;;;;;;5117437;28;20196;-64
2021/03/18 00:27:30;;;;;;;8.75;6.72;;;;;;;;;;5117295;28;20650;-65
2021/03/18 00:29:57;;;;;;;8.80;6.75;;;;;;;;;;5117149;28;20189;-65
2021/03/18 00:32:23;;;;;;;8.40;5.93;;;;;;;;;;5116926;28;20197;-65
2021/03/18 00:34:50;;;;;;;13.38;7.10;;;;;;;;;;5116844;28;20195;-65
2021/03/18 00:37:17;;;;;;;10.35;7.10;;;;;;;;;;5117140;28;20193;-65
2021/03/18 00:39:43;;;;;;;7.10;5.93;;;;;;;;;;5117547;28;20224;-65
2021/03/18 00:42:11;;;;;;;11.68;7.88;;;;;;;;;;5117212;28;20188;-65
2021/03/18 00:44:38;;;;;;;13.68;7.30;;;;;;;;;;5116460;28;20555;-65
2021/03/18 00:47:05;;;;;;;10.05;6.13;;;;;;;;;;5116770;28;20189;-65
2021/03/18 00:49:32;;;;;;;10.63;6.80;;;;;;;;;;5116726;28;20193;-65
2021/03/18 00:51:59;;;;;;;14.52;7.75;;;;;;;;;;5116664;28;20288;-65
2021/03/18 00:54:25;;;;;;;8.93;6.03;;;;;;;;;;5116865;28;20292;-65
2021/03/18 00:56:52;;;;;;;9.52;6.45;;;;;;;;;;5116604;28;20691;-64
2021/03/18 00:59:19;;;;;;;12.52;6.13;;;;;;;;;;5116725;28;20291;-66
2021/03/18 01:01:46;;;;;;;8.57;6.60;;;;;;;;;;5116806;28;20552;-65
2021/03/18 01:04:13;;;;;;;8.32;6.20;;;;;;;;;;5116669;28;20220;-65
2021/03/18 01:06:40;;;;;;;13.88;7.00;;;;;;;;;;5115763;28;20197;-65
2021/03/18 01:09:07;;;;;;;8.90;6.22;;;;;;;;;;5116615;28;20239;-64
2021/03/18 01:11:36;;;;;;;10.32;6.60;;;;;;;;;;5116423;28;20370;-65
2021/03/18 01:14:04;;;;;;;9.35;6.80;;;;;;;;;;5116073;28;20205;-65
2021/03/18 01:16:32;;;;;;;10.50;6.95;;;;;;;;;;5116235;28;20235;-65
2021/03/18 01:19:01;;;;;;;12.20;6.60;;;;;;;;;;5116112;28;20193;-65
2021/03/18 01:21:29;;;;;;;8.73;6.82;;;;;;;;;;5116282;28;20193;-65
2021/03/18 01:23:56;;;;;;;11.18;7.13;;;;;;;;;;5116459;28;20220;-64
2021/03/18 01:26:23;;;;;;;11.63;6.70;;;;;;;;;;5116524;28;20197;-65
2021/03/18 01:28:49;;;;;;;9.35;7.10;;;;;;;;;;5115777;28;20189;-65
2021/03/18 01:31:16;;;;;;;15.73;7.03;;;;;;;;;;5115792;28;20197;-66
2021/03/18 01:33:43;;;;;;;10.23;7.18;;;;;;;;;;5116316;28;20209;-65
2021/03/18 01:36:12;;;;;;;10.82;7.22;;;;;;;;;;5115648;28;20197;-66
2021/03/18 01:38:39;;;;;;;15.25;7.30;;;;;;;;;;5115939;28;20600;-65
2021/03/18 01:41:06;;;;;;;11.77;6.85;;;;;;;;;;5115559;28;20193;-64
2021/03/18 01:43:33;;;;;;;7.90;7.20;;;;;;;;;;5115744;28;20311;-64
2021/03/18 01:46:00;;;;;;;13.32;8.20;;;;;;;;;;5115832;28;20189;-66
2021/03/18 01:48:27;;;;;;;12.82;7.05;;;;;;;;;;5116811;28;20689;-66
2021/03/18 01:50:54;;;;;;;11.90;7.50;;;;;;;;;;5115336;28;20193;-66
2021/03/18 01:53:22;;;;;;;7.90;7.10;;;;;;;;;;5115887;28;20288;-65
2021/03/18 01:55:50;;;;;;;10.68;7.75;;;;;;;;;;5115317;28;20288;-65
2021/03/18 01:58:17;;;;;;;13.90;7.60;;;;;;;;;;5115272;28;20197;-64
2021/03/18 02:00:45;;;;;;;14.60;9.05;;;;;;;;;;5116054;28;20323;-64
2021/03/18 02:03:12;;;;;;;16.25;8.15;;;;;;;;;;5115236;28;20653;-64
2021/03/18 02:05:39;;;;;;;12.35;7.75;;;;;;;;;;5115650;28;20189;-64
2021/03/18 02:08:06;;;;;;;9.18;6.53;;;;;;;;;;5115327;28;20291;-64
2021/03/18 02:10:35;;;;;;;11.85;8.05;;;;;;;;;;5114813;28;20193;-64
2021/03/18 02:13:02;;;;;;;25.45;8.90;;;;;;;;;;5115220;28;20257;-65
2021/03/18 02:15:29;;;;;;;10.43;8.38;;;;;;;;;;5115602;28;20283;-64
2021/03/18 02:18:00;;;;;;;13.05;8.82;;;;;;;;;;5114966;28;20230;-64
2021/03/18 02:20:42;;;;;;;11.35;7.80;;;;;;;;;;5114941;28;20181;-65
2021/03/18 02:23:27;;;;;;;14.30;8.05;;;;;;;;;;5115039;28;20254;-65
2021/03/18 02:25:58;;;;;;;15.02;9.68;;;;;;;;;;5115010;28;20188;-66
2021/03/18 02:28:30;;;;;;;19.88;8.80;;;;;;;;;;5114691;28;20237;-65
2021/03/18 02:31:00;;;;;;;13.52;8.50;;;;;;;;;;5114849;28;20186;-65
2021/03/18 02:33:57;;;;;;;12.70;9.18;;;;;;;;;;5115154;28;20203;-65
2021/03/18 02:36:28;;;;;;;16.70;8.60;;;;;;;;;;5114849;28;20191;-64
2021/03/18 02:38:57;;;;;;;14.15;8.75;;;;;;;;;;5114431;28;20634;-64
2021/03/18 02:41:25;;;;;;;10.07;8.88;;;;;;;;;;5114539;28;20203;-65
2021/03/18 02:43:53;;;;;;;22.05;8.40;;;;;;;;;;5114324;28;20261;-65
2021/03/18 02:46:21;;;;;;;18.77;7.82;;;;;;;;;;5114584;28;20189;-64
2021/03/18 02:48:48;;;;;;;14.20;9.35;;;;;;;;;;5114646;28;20190;-64
2021/03/18 02:51:16;;;;;;;12.50;8.82;;;;;;;;;;5114090;28;20197;-65
2021/03/18 02:53:45;;;;;;;12.45;8.18;;;;;;;;;;5115019;28;20205;-64
2021/03/18 02:56:12;;;;;;;9.98;8.63;;;;;;;;;;5114011;28;20207;-65
2021/03/18 02:58:41;;;;;;;13.70;9.13;;;;;;;;;;5114324;28;20245;-65
2021/03/18 03:01:08;;;;;;;11.45;9.10;;;;;;;;;;5114281;28;20193;-64
2021/03/18 03:03:35;;;;;;;14.95;8.35;;;;;;;;;;5114140;28;20213;-64
2021/03/18 03:06:04;;;;;;;11.93;8.40;;;;;;;;;;5114427;28;20201;-65
2021/03/18 03:08:31;;;;;;;11.32;8.90;;;;;;;;;;5113852;28;20283;-64
2021/03/18 03:11:00;;;;;;;10.10;8.38;;;;;;;;;;5113697;28;20197;-65
2021/03/18 03:13:28;;;;;;;10.70;8.50;;;;;;;;;;5113757;28;20201;-65
2021/03/18 03:15:55;;;;;;;11.63;8.63;;;;;;;;;;5113525;28;20737;-64
2021/03/18 03:18:23;;;;;;;13.90;8.48;;;;;;;;;;5114200;28;20193;-65
2021/03/18 03:20:51;;;;;;;10.68;7.75;;;;;;;;;;5113659;28;20284;-65
2021/03/18 03:23:19;;;;;;;10.60;9.50;;;;;;;;;;5114342;28;20315;-65
2021/03/18 03:25:47;;;;;;;12.23;8.82;;;;;;;;;;5113982;28;20315;-65
2021/03/18 03:28:15;;;;;;;15.15;9.43;;;;;;;;;;5113544;28;20227;-64
2021/03/18 03:30:42;;;;;;;13.18;8.18;;;;;;;;;;5113225;28;20665;-64
2021/03/18 03:33:09;;;;;;;13.25;8.68;;;;;;;;;;5113688;28;20196;-65
2021/03/18 03:35:36;;;;;;;16.10;8.85;;;;;;;;;;5113382;28;20339;-65
2021/03/18 03:38:03;;;;;;;12.82;9.82;;;;;;;;;;5114107;28;20200;-65
2021/03/18 03:40:30;;;;;;;15.43;9.25;;;;;;;;;;5114147;28;20193;-64
2021/03/18 03:42:56;;;;;;;10.40;8.25;;;;;;;;;;5113844;28;20278;-64
2021/03/18 03:45:24;;;;;;;11.10;9.32;;;;;;;;;;5113318;28;20236;-64
2021/03/18 03:47:50;;;;;;;19.10;9.50;;;;;;;;;;5113668;28;20214;-65
2021/03/18 03:50:19;;;;;;;9.73;7.55;;;;;;;;;;5113252;28;20245;-64
2021/03/18 03:52:50;;;;;;;16.25;8.27;;;;;;;;;;5114166;28;20193;-65
2021/03/18 03:55:28;;;;;;;18.00;8.25;;;;;;;;;;5113955;28;20200;-65
2021/03/18 03:57:58;;;;;;;24.88;11.02;;;;;;;;;;5113483;28;20185;-64
2021/03/18 04:00:26;;;;;;;29.60;11.80;;;;;;;;;;5113684;28;20199;-64
2021/03/18 04:02:54;;;;;;;25.15;12.10;;;;;;;;;;5112941;28;20658;-65
2021/03/18 04:05:22;;;;;;;32.35;12.65;;;;;;;;;;5113357;28;20193;-65
2021/03/18 04:07:49;;;;;;;29.35;13.80;;;;;;;;;;5112995;28;20192;-65
2021/03/18 04:10:17;;;;;;;34.65;15.60;;;;;;;;;;5112914;28;20193;-64
2021/03/18 04:12:46;;;;;;;32.45;13.90;;;;;;;;;;5112967;28;20232;-66
2021/03/18 04:15:15;;;;;;;34.42;15.75;;;;;;;;;;5112929;28;20193;-65
2021/03/18 04:17:44;;;;;;;26.83;14.75;;;;;;;;;;5113456;28;20256;-66
2021/03/18 04:20:13;;;;;;;36.97;14.77;;;;;;;;;;5113157;28;20201;-66
2021/03/18 04:22:41;;;;;;;40.95;15.65;;;;;;;;;;5113494;28;20241;-65
2021/03/18 04:25:09;;;;;;;26.77;16.17;;;;;;;;;;5112940;28;20196;-65
2021/03/18 04:27:36;;;;;;;26.60;13.50;;;;;;;;;;5113321;28;20193;-66
2021/03/18 04:30:05;;;;;;;35.13;13.15;;;;;;;;;;5113247;28;20192;-65
2021/03/18 04:32:32;;;;;;;29.88;15.23;;;;;;;;;;5113546;28;20197;-65
2021/03/18 04:35:00;;;;;;;32.30;14.18;;;;;;;;;;5112947;28;20287;-65
2021/03/18 04:37:27;;;;;;;33.25;15.15;;;;;;;;;;5112940;28;20288;-65
2021/03/18 04:39:54;;;;;;;32.33;15.55;;;;;;;;;;5112688;28;20213;-65
2021/03/18 04:42:21;;;;;;;35.25;18.35;;;;;;;;;;5114699;28;20203;-65
2021/03/18 04:44:48;;;;;;;49.53;16.60;;;;;;;;;;5116848;28;20225;-64
2021/03/18 04:47:16;;;;;;;34.35;16.92;;;;;;;;;;5116886;28;20201;-65
2021/03/18 04:49:44;;;;;;;47.58;18.05;;;;;;;;;;5116864;28;20317;-65
2021/03/18 04:52:13;;;;;;;46.15;19.10;;;;;;;;;;5116481;28;20200;-65
2021/03/18 04:54:40;;;;;;;44.97;17.20;;;;;;;;;;5116445;28;20228;-66
2021/03/18 04:57:07;;;;;;;42.78;18.17;;;;;;;;;;5116368;28;20288;-65
2021/03/18 04:59:36;;;;;;;40.25;16.15;;;;;;;;;;5116711;28;20502;-66
2021/03/18 05:02:03;;;;;;;34.53;16.50;;;;;;;;;;5116268;28;20200;-75
2021/03/18 05:04:32;;;;;;;26.83;15.10;;;;;;;;;;5116161;28;20217;-65
2021/03/18 05:06:59;;;;;;;30.45;14.02;;;;;;;;;;5116633;28;20193;-66
2021/03/18 05:09:27;;;;;;;35.40;14.73;;;;;;;;;;5116132;28;20197;-65
2021/03/18 05:11:54;;;;;;;27.23;12.23;;;;;;;;;;5117133;28;20288;-65
2021/03/18 05:14:21;;;;;;;27.95;13.95;;;;;;;;;;5116613;28;20201;-66
2021/03/18 05:16:49;;;;;;;28.38;14.90;;;;;;;;;;5116304;28;20227;-65
2021/03/18 05:19:16;;;;;;;27.30;14.27;;;;;;;;;;5116283;28;20314;-66
2021/03/18 05:21:43;;;;;;;31.33;14.25;;;;;;;;;;5117021;28;20635;-65
2021/03/18 05:24:11;;;;;;;28.20;14.18;;;;;;;;;;5116275;28;20223;-65
2021/03/18 05:26:38;;;;;;;25.95;13.93;;;;;;;;;;5115938;28;20189;-65
2021/03/18 05:29:05;;;;;;;21.90;13.50;;;;;;;;;;5116193;28;20270;-66
2021/03/18 05:31:32;;;;;;;20.98;12.55;;;;;;;;;;5116787;28;20610;-66
2021/03/18 05:33:59;;;;;;;22.30;11.45;;;;;;;;;;5131484;27;20227;-65
2021/03/18 05:36:26;;;;;;;19.80;11.43;;;;;;;;;;5135391;27;20216;-65
2021/03/18 05:38:52;;;;;;;20.88;11.60;;;;;;;;;;5135686;27;20235;-65
2021/03/18 05:41:20;;;;;;;24.05;13.80;;;;;;;;;;5135192;27;20279;-66
2021/03/18 05:43:47;;;;;;;26.02;12.07;;;;;;;;;;5134893;27;20208;-65
2021/03/18 05:46:14;;;;;;;28.58;12.55;;;;;;;;;;5135407;27;20196;-66
2021/03/18 05:48:42;;;;;;;21.88;12.85;;;;;;;;;;5135483;27;20195;-65
2021/03/18 05:51:10;;;;;;;26.45;13.95;;;;;;;;;;5135403;27;20192;-65
2021/03/18 05:53:39;;;;;;;32.45;13.50;;;;;;;;;;5134833;27;20200;-65
2021/03/18 05:56:06;;;;;;;22.13;13.02;;;;;;;;;;5135605;27;20203;-65
2021/03/18 05:58:33;;;;;;;24.02;13.93;;;;;;;;;;5135016;27;20290;-65
2021/03/18 06:01:01;;;;;;;28.95;14.32;;;;;;;;;;5135002;27;20291;-65
2021/03/18 06:03:28;;;;;;;22.33;13.93;;;;;;;;;;5134036;27;20295;-66
2021/03/18 06:05:54;;;;;;;34.63;13.35;;;;;;;;;;5135142;27;20283;-65
2021/03/18 06:08:21;;;;;;;25.50;15.18;;;;;;;;;;5135404;27;20217;-65
2021/03/18 06:10:48;;;;;;;23.65;13.98;;;;;;;;;;5135786;27;20188;-65
2021/03/18 06:13:15;;;;;;;20.52;12.77;;;;;;;;;;5135720;27;20200;-64
2021/03/18 06:15:41;;;;;;;33.60;15.10;;;;;;;;;;5135628;27;20637;-65
2021/03/18 06:18:12;;;;;;;20.23;12.30;;;;;;;;;;5135660;27;20227;-66
2021/03/18 06:20:39;;;;;;;21.23;13.73;;;;;;;;;;5136027;27;20206;-66
2021/03/18 06:23:09;;;;;;;25.85;13.20;;;;;;;;;;5135185;27;20286;-65
2021/03/18 06:25:37;;;;;;;20.27;12.45;;;;;;;;;;5135524;27;20220;-65
2021/03/18 06:28:12;;;;;;;23.50;13.88;;;;;;;;;;5134588;27;20244;-66
2021/03/18 06:30:39;;;;;;;20.10;12.73;;;;;;;;;;5134605;27;20338;-65
2021/03/18 06:33:17;;;;;;;21.90;13.15;;;;;;;;;;5133229;27;20196;-64
2021/03/18 06:35:44;;;;;;;23.80;13.77;;;;;;;;;;5135147;27;20191;-65
2021/03/18 06:38:10;;;;;;;21.88;13.43;;;;;;;;;;5134752;27;20234;-65
2021/03/18 06:40:39;;;;;;;30.23;14.50;;;;;;;;;;5134953;27;20649;-67
2021/03/18 06:43:06;;;;;;;26.27;15.13;;;;;;;;;;5135696;27;20287;-66
2021/03/18 06:45:34;;;;;;;20.27;13.00;;;;;;;;;;5135076;27;20195;-66
2021/03/18 06:48:02;;;;;;;23.25;13.50;;;;;;;;;;5135184;27;20188;-65
2021/03/18 06:50:34;;;;;;;24.30;12.50;;;;;;;;;;5134966;27;20188;-67
2021/03/18 06:53:01;;;;;;;26.92;13.60;;;;;;;;;;5135608;27;20244;-65
2021/03/18 06:55:29;;;;;;;26.73;13.80;;;;;;;;;;5134459;27;20188;-65
2021/03/18 06:58:14;;;;;;;22.15;11.95;;;;;;;;;;5134448;27;20192;-66
2021/03/18 07:00:42;;;;;;;31.98;13.93;;;;;;;;;;5135216;27;20243;-65
2021/03/18 07:03:09;;;;;;;29.35;13.48;;;;;;;;;;5134290;27;20195;-66
2021/03/18 07:05:42;;;;;;;30.30;14.75;;;;;;;;;;5134599;27;20203;-66
2021/03/18 07:08:21;;;;;;;33.45;14.70;;;;;;;;;;5134647;27;20194;-66
2021/03/18 07:10:48;;;;;;;29.60;15.10;;;;;;;;;;5135309;27;20681;-65
2021/03/18 07:13:15;;;;;;;30.88;15.45;;;;;;;;;;5134199;27;20232;-66
2021/03/18 07:15:42;;;;;;;30.58;13.82;;;;;;;;;;5134670;27;20200;-65
2021/03/18 07:18:09;;;;;;;28.75;15.05;;;;;;;;;;5134450;27;20564;-65
2021/03/18 07:20:36;;;;;;;31.63;15.57;;;;;;;;;;5134720;27;20223;-65
2021/03/18 07:23:11;;;;;;;30.92;15.73;;;;;;;;;;5134499;27;20202;-66
2021/03/18 07:25:45;;;;;;;35.65;16.02;;;;;;;;;;5135251;27;20184;-65
2021/03/18 07:28:14;;;;;;;31.65;15.75;;;;;;;;;;5134058;27;20234;-67
2021/03/18 07:30:42;;;;;;;45.15;16.77;;;;;;;;;;5134099;27;20240;-66
2021/03/18 07:33:08;;;;;;;34.95;17.30;;;;;;;;;;5134548;27;20283;-65
2021/03/18 07:35:36;;;;;;;32.08;16.13;;;;;;;;;;5133512;27;20198;-65
2021/03/18 07:38:04;;;;;;;40.30;16.55;;;;;;;;;;5134691;27;20214;-65
2021/03/18 07:40:31;;;;;;;40.83;18.35;;;;;;;;;;5133719;27;20279;-65
2021/03/18 07:42:59;;;;;;;37.38;15.45;;;;;;;;;;5133757;27;20671;-64
2021/03/18 07:45:27;;;;;;;34.60;15.52;;;;;;;;;;5133990;27;20269;-65
2021/03/18 07:47:54;;;;;;;25.58;15.93;;;;;;;;;;5134126;27;20224;-65
2021/03/18 07:50:26;;;;;;;38.90;18.70;;;;;;;;;;5134218;28;20198;-64
2021/03/18 07:52:53;;;;;;;42.42;18.33;;;;;;;;;;5133714;28;20660;-65
2021/03/18 07:55:21;;;;;;;37.90;18.75;;;;;;;;;;5133989;28;20291;-65
2021/03/18 07:57:50;;;;;;;39.33;18.50;;;;;;;;;;5133844;28;20279;-65
2021/03/18 08:00:18;;;;;;;48.88;20.75;;;;;;;;;;5133760;28;20197;-65
2021/03/18 08:02:44;;;;;;;41.22;20.35;;;;;;;;;;5133862;28;20192;-64
2021/03/18 08:05:11;;;;;;;56.13;22.55;;;;;;;;;;5133542;28;20222;-65
2021/03/18 08:07:43;;;;;;;48.38;21.65;;;;;;;;;;5133969;28;20278;-65
2021/03/18 08:10:11;;;;;;;43.25;19.80;;;;;;;;;;5134126;28;20208;-66
2021/03/18 08:12:48;;;;;;;39.80;20.48;;;;;;;;;;5133833;28;20231;-66
2021/03/18 08:15:33;;;;;;;38.05;19.55;;;;;;;;;;5133972;28;20271;-66
2021/03/18 08:18:19;;;;;;;34.63;17.60;;;;;;;;;;5136872;27;20203;-66
2021/03/18 08:20:59;;;;;;;45.10;19.85;;;;;;;;;;5137570;27;20722;-65
2021/03/18 08:23:42;;;;;;;40.22;18.98;;;;;;;;;;5137946;27;20223;-65
2021/03/18 08:26:10;;;;;;;43.60;20.05;;;;;;;;;;5137705;27;20196;-66
2021/03/18 08:28:39;;;;;;;50.72;21.73;;;;;;;;;;5137857;27;20636;-65
2021/03/18 08:31:06;;;;;;;53.10;21.52;;;;;;;;;;5138400;27;20198;-65
2021/03/18 08:33:34;;;;;;;44.08;19.45;;;;;;;;;;5137281;27;20199;-65
2021/03/18 08:36:24;;;;;;;48.40;18.55;;;;;;;;;;5137601;27;20220;-65
2021/03/18 08:38:52;;;;;;;41.20;19.35;;;;;;;;;;5116899;27;20611;-65
2021/03/18 08:41:33;;;;;;;50.60;20.20;;;;;;;;;;5137176;27;20188;-65
2021/03/18 08:44:13;;;;;;;39.25;19.42;;;;;;;;;;5138324;27;20219;-66
2021/03/18 08:46:41;;;;;;;40.55;18.13;;;;;;;;;;5137147;27;20228;-65
2021/03/18 08:49:28;;;;;;;43.47;20.73;;;;;;;;;;5137410;27;20192;-66
2021/03/18 08:51:55;;;;;;;47.33;19.65;;;;;;;;;;5136971;27;20200;-65
2021/03/18 08:54:41;;;;;;;42.60;20.05;;;;;;;;;;5137247;27;20202;-65
2021/03/18 08:57:09;;;;;;;45.17;20.55;;;;;;;;;;5136883;27;20199;-65
2021/03/18 08:59:37;;;;;;;42.80;21.05;;;;;;;;;;5137274;27;20267;-65
2021/03/18 09:02:05;;;;;;;46.22;20.88;;;;;;;;;;5137211;27;20289;-65
2021/03/18 09:04:37;;;;;;;49.15;20.23;;;;;;;;;;5136675;27;20692;-65
2021/03/18 09:07:04;;;;;;;44.88;20.88;;;;;;;;;;5136708;27;20232;-65
2021/03/18 09:09:31;;;;;;;46.35;22.13;;;;;;;;;;5136875;27;20568;-65
2021/03/18 09:11:58;;;;;;;40.67;19.02;;;;;;;;;;5137098;27;20712;-66
2021/03/18 09:14:25;;;;;;;35.22;20.05;;;;;;;;;;5136496;27;20196;-65
2021/03/18 09:16:53;;;;;;;39.03;19.88;;;;;;;;;;5136289;27;20325;-67
2021/03/18 09:19:19;;;;;;;44.80;18.83;;;;;;;;;;5137253;27;20612;-65
2021/03/18 09:21:46;;;;;;;36.88;19.35;;;;;;;;;;5136704;27;20646;-66
2021/03/18 09:24:14;;;;;;;38.25;18.50;;;;;;;;;;5136157;27;20701;-66
2021/03/18 09:26:41;;;;;;;42.17;20.60;;;;;;;;;;5136645;27;20231;-66
2021/03/18 09:29:08;;;;;;;40.25;18.60;;;;;;;;;;5136258;27;20587;-66
2021/03/18 09:31:34;;;;;;;33.90;19.63;;;;;;;;;;5136889;27;20672;-67
2021/03/18 09:34:02;;;;;;;48.75;19.80;;;;;;;;;;5135963;27;20674;-66
2021/03/18 09:36:30;;;;;;;36.35;19.67;;;;;;;;;;5136736;27;20219;-66
2021/03/18 09:39:00;;;;;;;37.40;18.10;;;;;;;;;;5136684;27;20189;-65
2021/03/18 09:41:27;;;;;;;37.25;18.85;;;;;;;;;;5136532;27;20219;-65
2021/03/18 09:44:04;;;;;;;35.42;16.48;;;;;;;;;;5136089;27;20219;-66
2021/03/18 09:46:32;;;;;;;35.80;18.23;;;;;;;;;;5136072;27;20600;-66
2021/03/18 09:48:58;;;;;;;38.00;18.90;;;;;;;;;;5135961;27;20681;-67
2021/03/18 09:51:26;;;;;;;31.23;17.23;;;;;;;;;;5136191;27;20275;-66
2021/03/18 09:53:57;;;;;;;34.97;16.90;;;;;;;;;;5135649;27;20287;-65
2021/03/18 09:56:24;;;;;;;36.78;18.55;;;;;;;;;;5135828;27;20193;-66
2021/03/18 09:58:51;;;;;;;30.70;16.35;;;;;;;;;;5135893;27;20192;-65
2021/03/18 10:01:19;;;;;;;34.22;17.20;;;;;;;;;;5136083;27;20192;-65
2021/03/18 10:03:55;;;;;;;34.20;17.10;;;;;;;;;;5135500;27;20208;-65
2021/03/18 10:06:27;;;;;;;31.70;15.38;;;;;;;;;;5135653;27;20234;-65
2021/03/18 10:08:54;;;;;;;33.58;15.98;;;;;;;;;;5135872;27;20192;-65
2021/03/18 10:11:22;;;;;;;30.23;17.50;;;;;;;;;;5136195;27;20245;-66
2021/03/18 10:13:49;;;;;;;34.53;14.88;;;;;;;;;;5135336;27;20292;-66
2021/03/18 10:16:16;;;;;;;32.33;14.85;;;;;;;;;;5135435;27;20257;-65
2021/03/18 10:18:43;;;;;;;23.88;13.25;;;;;;;;;;5136144;27;20685;-66
2021/03/18 10:21:10;;;;;;;19.40;11.88;;;;;;;;;;5135163;27;20280;-66
2021/03/18 10:23:38;;;;;;;25.23;12.90;;;;;;;;;;5135851;27;20211;-65
2021/03/18 10:26:04;;;;;;;23.50;12.15;;;;;;;;;;5135428;27;20533;-65
2021/03/18 10:28:32;;;;;;;25.35;12.75;;;;;;;;;;5135317;27;20200;-66
2021/03/18 10:31:04;;;;;;;20.95;13.82;;;;;;;;;;5134928;27;20655;-66
2021/03/18 10:33:34;;;;;;;24.10;11.90;;;;;;;;;;5134848;27;20217;-67
2021/03/18 10:36:03;;;;;;;19.60;11.90;;;;;;;;;;5135141;27;20639;-66
2021/03/18 10:38:31;;;;;;;21.40;12.10;;;;;;;;;;5134679;27;20227;-65
2021/03/18 10:40:59;;;;;;;25.35;13.35;;;;;;;;;;5133883;27;20192;-66
2021/03/18 10:43:27;;;;;;;20.03;12.60;;;;;;;;;;5135601;27;20197;-66
2021/03/18 10:45:55;;;;;;;25.00;12.77;;;;;;;;;;5135815;27;20192;-66
2021/03/18 10:48:22;;;;;;;20.05;12.13;;;;;;;;;;5135074;27;20192;-65
2021/03/18 10:50:50;;;;;;;18.50;11.88;;;;;;;;;;5134814;27;20609;-67
2021/03/18 10:53:17;;;;;;;25.40;12.38;;;;;;;;;;5134856;27;20192;-67
2021/03/18 10:55:46;;;;;;;26.20;13.70;;;;;;;;;;5134513;27;20236;-67
2021/03/18 10:58:17;;;;;;;26.15;12.57;;;;;;;;;;5135366;27;20198;-66
2021/03/18 11:00:44;;;;;;;24.20;12.85;;;;;;;;;;5134868;27;20282;-66
2021/03/18 11:03:12;;;;;;;25.48;13.82;;;;;;;;;;5134761;27;20266;-66
2021/03/18 11:05:40;;;;;;;20.85;10.82;;;;;;;;;;5134695;27;20248;-66
2021/03/18 11:08:07;;;;;;;26.77;13.13;;;;;;;;;;5134612;27;20619;-66
2021/03/18 11:10:36;;;;;;;19.98;12.60;;;;;;;;;;5134874;27;20227;-66
2021/03/18 11:13:04;;;;;;;21.67;13.90;;;;;;;;;;5134565;27;20212;-66
2021/03/18 11:15:51;;;;;;;22.27;12.38;;;;;;;;;;5134567;27;20663;-66
2021/03/18 11:18:18;;;;;;;23.50;12.18;;;;;;;;;;5093449;28;20275;-66
2021/03/18 11:20:46;;;;;;;21.42;12.68;;;;;;;;;;5094029;28;20286;-66
2021/03/18 11:23:14;;;;;;;27.13;14.00;;;;;;;;;;5093495;28;20235;-66
2021/03/18 11:25:41;;;;;;;28.95;13.85;;;;;;;;;;5093064;28;20218;-67
2021/03/18 11:28:13;;;;;;;24.27;12.05;;;;;;;;;;5093911;28;20217;-66
2021/03/18 11:30:43;;;;;;;22.60;13.63;;;;;;;;;;5094187;28;20186;-66
2021/03/18 11:33:15;;;;;;;25.73;13.00;;;;;;;;;;5093266;28;20235;-65
2021/03/18 11:35:42;;;;;;;20.77;12.25;;;;;;;;;;5093045;28;20194;-66
2021/03/18 11:38:09;;;;;;;19.20;11.32;;;;;;;;;;5092974;28;20249;-66
2021/03/18 11:40:36;;;;;;;22.00;11.10;;;;;;;;;;5092965;28;20197;-66
2021/03/18 11:43:03;;;;;;;18.38;11.77;;;;;;;;;;5093712;28;20643;-66
2021/03/18 11:45:30;;;;;;;21.52;12.70;;;;;;;;;;5092824;28;20245;-66
2021/03/18 11:47:57;;;;;;;18.48;10.70;;;;;;;;;;5093476;28;20195;-66
2021/03/18 11:50:25;;;;;;;25.05;10.60;;;;;;;;;;5092734;28;20233;-65
2021/03/18 11:52:53;;;;;;;16.60;11.57;;;;;;;;;;5092926;28;20230;-66
2021/03/18 11:55:20;;;;;;;15.52;10.00;;;;;;;;;;5093766;28;20197;-65
2021/03/18 11:57:47;;;;;;;18.88;10.55;;;;;;;;;;5092693;28;20249;-65
2021/03/18 12:00:15;;;;;;;18.77;9.25;;;;;;;;;;5092748;28;20655;-66
2021/03/18 12:02:41;;;;;;;12.32;8.77;;;;;;;;;;5093298;28;20280;-66
2021/03/18 12:05:09;;;;;;;14.15;8.77;;;;;;;;;;5093096;28;20210;-66
2021/03/18 12:07:36;;;;;;;19.25;8.77;;;;;;;;;;5092678;28;20229;-66
2021/03/18 12:10:04;;;;;;;19.75;10.20;;;;;;;;;;5092660;28;20196;-67
2021/03/18 12:12:31;;;;;;;15.38;9.60;;;;;;;;;;5092678;28;20644;-66
2021/03/18 12:14:57;;;;;;;19.88;10.15;;;;;;;;;;5092851;28;20202;-65
2021/03/18 12:17:24;;;;;;;19.23;10.30;;;;;;;;;;5124900;28;20267;-66
2021/03/18 12:19:51;;;;;;;18.02;10.10;;;;;;;;;;5133876;28;20636;-66
2021/03/18 12:22:18;;;;;;;17.45;10.45;;;;;;;;;;5133489;28;20228;-66
2021/03/18 12:24:45;;;;;;;10.73;8.35;;;;;;;;;;5133361;28;20265;-67
2021/03/18 12:27:12;;;;;;;14.38;8.95;;;;;;;;;;5134073;28;20228;-65
2021/03/18 12:29:39;;;;;;;13.60;8.70;;;;;;;;;;5133753;28;20592;-66
2021/03/18 12:32:06;;;;;;;9.93;7.88;;;;;;;;;;5133389;28;20197;-66
2021/03/18 12:34:32;;;;;;;9.60;8.63;;;;;;;;;;5133700;28;20240;-66
2021/03/18 12:36:59;;;;;;;9.85;7.88;;;;;;;;;;5133653;28;20243;-65
2021/03/18 12:39:26;;;;;;;17.02;9.00;;;;;;;;;;5133212;28;20189;-66
2021/03/18 12:41:54;;;;;;;12.73;8.30;;;;;;;;;;5133245;28;20205;-66
2021/03/18 12:44:20;;;;;;;15.13;10.05;;;;;;;;;;5133413;28;20275;-66
2021/03/18 12:46:47;;;;;;;9.55;7.25;;;;;;;;;;5133933;28;20234;-67
2021/03/18 12:49:14;;;;;;;9.43;7.65;;;;;;;;;;5133487;28;20289;-66
2021/03/18 12:51:41;;;;;;;14.73;8.25;;;;;;;;;;5133243;28;20197;-66
2021/03/18 12:54:07;;;;;;;10.68;7.35;;;;;;;;;;5133109;28;20233;-66
2021/03/18 12:56:35;;;;;;;11.35;7.82;;;;;;;;;;5133167;28;20287;-66
2021/03/18 12:59:02;;;;;;;8.88;6.50;;;;;;;;;;5134129;28;20194;-66
2021/03/18 13:01:29;;;;;;;15.00;7.70;;;;;;;;;;5133437;28;20288;-66
2021/03/18 13:03:56;;;;;;;21.40;8.73;;;;;;;;;;5135417;27;20212;-66
2021/03/18 13:06:23;;;;;;;15.20;7.93;;;;;;;;;;5136690;27;20227;-66
2021/03/18 13:08:50;;;;;;;16.60;7.40;;;;;;;;;;5136711;27;20200;-66
2021/03/18 13:11:16;;;;;;;8.80;7.90;;;;;;;;;;5136878;27;20200;-67
2021/03/18 13:13:44;;;;;;;10.23;8.00;;;;;;;;;;5137087;27;20308;-66
2021/03/18 13:16:11;;;;;;;9.98;7.05;;;;;;;;;;5136986;27;20231;-65
2021/03/18 13:18:38;;;;;;;9.27;7.43;;;;;;;;;;5136649;27;20234;-66
2021/03/18 13:21:05;;;;;;;9.15;7.25;;;;;;;;;;5136734;27;20279;-65
2021/03/18 13:23:32;;;;;;;8.85;7.45;;;;;;;;;;5136344;27;20316;-66
2021/03/18 13:25:59;;;;;;;9.88;6.65;;;;;;;;;;5136908;27;20231;-65
2021/03/18 13:28:28;;;;;;;8.07;7.22;;;;;;;;;;5136795;27;20189;-66
2021/03/18 13:30:55;;;;;;;9.57;6.60;;;;;;;;;;5136230;27;20287;-66
2021/03/18 13:33:22;;;;;;;8.70;6.50;;;;;;;;;;5136620;27;20265;-66
2021/03/18 13:35:49;;;;;;;10.45;7.28;;;;;;;;;;5136087;27;20232;-66
2021/03/18 13:38:16;;;;;;;11.38;7.28;;;;;;;;;;5135834;27;20199;-65
2021/03/18 13:40:45;;;;;;;8.85;6.57;;;;;;;;;;5135799;27;20677;-66
2021/03/18 13:43:12;;;;;;;10.02;6.72;;;;;;;;;;5135774;27;20233;-65
2021/03/18 13:45:39;;;;;;;8.30;7.20;;;;;;;;;;5136107;27;20625;-66
2021/03/18 13:48:07;;;;;;;11.20;7.65;;;;;;;;;;5135828;27;20697;-66
2021/03/18 13:50:35;;;;;;;11.30;6.95;;;;;;;;;;5136127;27;20724;-66
2021/03/18 13:53:02;;;;;;;7.25;6.40;;;;;;;;;;5136126;27;20311;-67
2021/03/18 13:55:29;;;;;;;9.77;7.15;;;;;;;;;;5136284;27;20204;-67
2021/03/18 13:57:56;;;;;;;12.73;8.65;;;;;;;;;;5136727;27;20232;-72
2021/03/18 14:00:23;;;;;;;10.90;8.13;;;;;;;;;;5136429;27;20235;-71
2021/03/18 14:02:50;;;;;;;10.05;7.50;;;;;;;;;;5135594;27;20231;-69
2021/03/18 14:05:17;;;;;;;10.52;8.75;;;;;;;;;;5135893;27;20247;-71
2021/03/18 14:07:45;;;;;;;11.68;9.52;;;;;;;;;;5135657;27;20190;-69
2021/03/18 14:10:12;;;;;;;12.35;10.35;;;;;;;;;;5135916;27;20204;-69
2021/03/18 14:12:39;;;;;;;11.32;7.97;;;;;;;;;;5136246;27;20217;-68
2021/03/18 14:15:08;;;;;;;11.00;8.27;;;;;;;;;;5134233;27;20228;-69
2021/03/18 14:17:35;;;;;;;8.73;7.72;;;;;;;;;;5134505;27;20246;-69
2021/03/18 14:20:01;;;;;;;8.57;7.60;;;;;;;;;;5134699;27;20193;-70
2021/03/18 14:22:28;;;;;;;10.82;8.10;;;;;;;;;;5134516;27;20434;-69
2021/03/18 14:24:56;;;;;;;12.63;7.80;;;;;;;;;;5134880;27;20308;-68
2021/03/18 14:27:23;;;;;;;8.68;7.50;;;;;;;;;;5135154;27;20200;-70
2021/03/18 14:29:49;;;;;;;7.35;6.65;;;;;;;;;;5135246;27;20196;-69